sensor_id;sensor_type;location;lat;lon;timestamp;pressure;altitude;pressure_sealevel;temperature;humidity
78623;BME280;67943;54.412;9.502;2023-07-31T00:02:15;100576.75;;;14.64;95.22
78623;BME280;67943;54.412;9.502;2023-07-31T00:07:16;100576.03;;;14.61;95.23
78623;BME280;67943;54.412;9.502;2023-07-31T00:12:18;100568.00;;;14.62;95.45
78623;BME280;67943;54.412;9.502;2023-07-31T00:17:21;100574.38;;;14.78;94.03
78623;BME280;67943;54.412;9.502;2023-07-31T00:22:22;100548.56;;;14.63;94.60
78623;BME280;67943;54.412;9.502;2023-07-31T00:27:24;100536.91;;;14.67;93.98
78623;BME280;67943;54.412;9.502;2023-07-31T00:32:27;100532.66;;;14.63;94.46
78623;BME280;67943;54.412;9.502;2023-07-31T00:37:28;100533.34;;;14.68;93.38
78623;BME280;67943;54.412;9.502;2023-07-31T00:42:30;100520.84;;;14.72;92.46
78623;BME280;67943;54.412;9.502;2023-07-31T00:47:33;100521.81;;;14.69;93.17
78623;BME280;67943;54.412;9.502;2023-07-31T00:52:35;100514.66;;;14.71;92.50
78623;BME280;67943;54.412;9.502;2023-07-31T00:57:38;100516.91;;;14.60;92.56
78623;BME280;67943;54.412;9.502;2023-07-31T01:02:43;100519.50;;;14.62;92.75
78623;BME280;67943;54.412;9.502;2023-07-31T01:07:49;100504.66;;;14.58;93.04
78623;BME280;67943;54.412;9.502;2023-07-31T01:12:53;100502.88;;;14.58;93.10
78623;BME280;67943;54.412;9.502;2023-07-31T01:17:59;100506.69;;;14.51;93.20
78623;BME280;67943;54.412;9.502;2023-07-31T01:23:35;100502.13;;;14.55;93.17
78623;BME280;67943;54.412;9.502;2023-07-31T01:28:51;100492.25;;;14.38;94.12
78623;BME280;67943;54.412;9.502;2023-07-31T01:33:59;100491.69;;;14.30;94.67
78623;BME280;67943;54.412;9.502;2023-07-31T01:39:01;100488.13;;;14.31;93.51
78623;BME280;67943;54.412;9.502;2023-07-31T01:44:06;100479.88;;;14.38;93.42
78623;BME280;67943;54.412;9.502;2023-07-31T01:49:07;100473.09;;;14.31;93.20
78623;BME280;67943;54.412;9.502;2023-07-31T01:54:09;100469.41;;;14.35;92.88
78623;BME280;67943;54.412;9.502;2023-07-31T01:59:12;100457.97;;;14.35;93.01
78623;BME280;67943;54.412;9.502;2023-07-31T02:04:14;100449.22;;;14.33;93.19
78623;BME280;67943;54.412;9.502;2023-07-31T02:09:15;100450.81;;;14.37;92.80
78623;BME280;67943;54.412;9.502;2023-07-31T02:14:18;100440.22;;;14.37;93.55
78623;BME280;67943;54.412;9.502;2023-07-31T02:19:19;100441.69;;;14.44;92.93
78623;BME280;67943;54.412;9.502;2023-07-31T02:24:21;100438.31;;;14.40;92.61
78623;BME280;67943;54.412;9.502;2023-07-31T02:29:24;100434.34;;;14.30;93.29
78623;BME280;67943;54.412;9.502;2023-07-31T02:34:25;100433.22;;;14.36;93.06
78623;BME280;67943;54.412;9.502;2023-07-31T02:39:27;100425.28;;;14.36;93.28
78623;BME280;67943;54.412;9.502;2023-07-31T02:44:29;100430.50;;;14.37;93.32
78623;BME280;67943;54.412;9.502;2023-07-31T02:49:31;100417.22;;;14.39;93.36
78623;BME280;67943;54.412;9.502;2023-07-31T02:54:32;100418.84;;;14.43;93.88
78623;BME280;67943;54.412;9.502;2023-07-31T02:59:35;100418.06;;;14.39;94.13
78623;BME280;67943;54.412;9.502;2023-07-31T03:04:37;100417.22;;;14.39;95.03
78623;BME280;67943;54.412;9.502;2023-07-31T03:09:38;100417.47;;;14.33;95.62
78623;BME280;67943;54.412;9.502;2023-07-31T03:14:41;100413.63;;;14.40;96.00
78623;BME280;67943;54.412;9.502;2023-07-31T03:19:43;100408.75;;;14.51;95.65
78623;BME280;67943;54.412;9.502;2023-07-31T03:24:44;100402.53;;;14.52;95.99
78623;BME280;67943;54.412;9.502;2023-07-31T03:29:47;100405.03;;;14.55;96.27
78623;BME280;67943;54.412;9.502;2023-07-31T03:34:50;100401.13;;;14.64;96.42
78623;BME280;67943;54.412;9.502;2023-07-31T03:39:51;100397.63;;;14.63;96.72
78623;BME280;67943;54.412;9.502;2023-07-31T03:44:54;100381.47;;;14.69;97.10
78623;BME280;67943;54.412;9.502;2023-07-31T03:49:55;100386.25;;;14.61;98.18
78623;BME280;67943;54.412;9.502;2023-07-31T03:54:57;100390.81;;;14.58;100.00
78623;BME280;67943;54.412;9.502;2023-07-31T04:00:00;100394.41;;;14.75;100.00
78623;BME280;67943;54.412;9.502;2023-07-31T04:05:01;100380.09;;;14.79;100.00
78623;BME280;67943;54.412;9.502;2023-07-31T04:10:03;100382.53;;;14.84;100.00
78623;BME280;67943;54.412;9.502;2023-07-31T04:15:07;100387.38;;;14.95;100.00
78623;BME280;67943;54.412;9.502;2023-07-31T04:20:09;100375.53;;;15.02;100.00
78623;BME280;67943;54.412;9.502;2023-07-31T04:25:11;100374.09;;;15.13;99.80
78623;BME280;67943;54.412;9.502;2023-07-31T04:30:14;100365.81;;;15.21;99.52
78623;BME280;67943;54.412;9.502;2023-07-31T04:35:15;100366.91;;;15.34;98.73
78623;BME280;67943;54.412;9.502;2023-07-31T04:40:17;100361.94;;;15.28;98.78
78623;BME280;67943;54.412;9.502;2023-07-31T04:45:20;100368.50;;;15.38;98.72
78623;BME280;67943;54.412;9.502;2023-07-31T04:50:21;100370.50;;;15.33;99.50
78623;BME280;67943;54.412;9.502;2023-07-31T04:55:23;100362.75;;;15.47;98.41
78623;BME280;67943;54.412;9.502;2023-07-31T05:00:25;100356.44;;;15.50;98.45
78623;BME280;67943;54.412;9.502;2023-07-31T05:05:27;100350.56;;;15.43;99.41
78623;BME280;67943;54.412;9.502;2023-07-31T05:10:28;100346.56;;;15.53;99.01
78623;BME280;67943;54.412;9.502;2023-07-31T05:15:31;100333.09;;;15.58;99.21
78623;BME280;67943;54.412;9.502;2023-07-31T05:20:33;100313.81;;;15.54;99.15
78623;BME280;67943;54.412;9.502;2023-07-31T05:25:34;100320.16;;;15.69;98.73
78623;BME280;67943;54.412;9.502;2023-07-31T05:30:37;100337.25;;;15.81;97.92
78623;BME280;67943;54.412;9.502;2023-07-31T05:35:38;100324.13;;;15.78;98.66
78623;BME280;67943;54.412;9.502;2023-07-31T05:40:40;100323.50;;;15.90;98.10
78623;BME280;67943;54.412;9.502;2023-07-31T05:45:43;100318.84;;;15.78;98.57
78623;BME280;67943;54.412;9.502;2023-07-31T05:50:44;100316.16;;;15.95;98.21
78623;BME280;67943;54.412;9.502;2023-07-31T05:55:46;100315.53;;;15.90;98.08
78623;BME280;67943;54.412;9.502;2023-07-31T06:00:49;100311.97;;;16.08;97.04
78623;BME280;67943;54.412;9.502;2023-07-31T06:05:50;100312.81;;;16.09;97.08
78623;BME280;67943;54.412;9.502;2023-07-31T06:10:52;100313.44;;;16.14;95.92
78623;BME280;67943;54.412;9.502;2023-07-31T06:15:55;100327.72;;;16.11;95.64
78623;BME280;67943;54.412;9.502;2023-07-31T06:20:56;100318.34;;;16.04;96.15
78623;BME280;67943;54.412;9.502;2023-07-31T06:25:58;100329.44;;;16.12;95.88
78623;BME280;67943;54.412;9.502;2023-07-31T06:31:01;100310.38;;;16.21;95.72
78623;BME280;67943;54.412;9.502;2023-07-31T06:36:02;100323.50;;;16.07;95.98
78623;BME280;67943;54.412;9.502;2023-07-31T06:41:04;100318.31;;;16.21;95.61
78623;BME280;67943;54.412;9.502;2023-07-31T06:46:07;100323.16;;;16.31;95.92
78623;BME280;67943;54.412;9.502;2023-07-31T06:51:09;100310.28;;;16.23;96.27
78623;BME280;67943;54.412;9.502;2023-07-31T06:56:10;100311.91;;;16.26;96.03
78623;BME280;67943;54.412;9.502;2023-07-31T07:01:13;100314.09;;;16.35;95.76
78623;BME280;67943;54.412;9.502;2023-07-31T07:06:14;100309.72;;;16.34;95.36
78623;BME280;67943;54.412;9.502;2023-07-31T07:11:17;100315.91;;;16.17;95.21
78623;BME280;67943;54.412;9.502;2023-07-31T07:16:19;100307.38;;;16.28;96.11
78623;BME280;67943;54.412;9.502;2023-07-31T07:21:21;100304.41;;;16.34;95.61
78623;BME280;67943;54.412;9.502;2023-07-31T07:26:23;100295.19;;;16.41;94.03
78623;BME280;67943;54.412;9.502;2023-07-31T07:31:25;100290.47;;;16.46;94.30
78623;BME280;67943;54.412;9.502;2023-07-31T07:36:27;100289.34;;;16.34;93.85
78623;BME280;67943;54.412;9.502;2023-07-31T07:41:29;100285.06;;;16.32;95.17
78623;BME280;67943;54.412;9.502;2023-07-31T07:46:31;100276.59;;;16.41;94.18
78623;BME280;67943;54.412;9.502;2023-07-31T07:51:33;100275.13;;;16.35;95.29
78623;BME280;67943;54.412;9.502;2023-07-31T07:56:34;100256.31;;;16.40;94.41
78623;BME280;67943;54.412;9.502;2023-07-31T08:01:37;100275.38;;;16.31;95.21
78623;BME280;67943;54.412;9.502;2023-07-31T08:06:39;100264.75;;;16.31;95.75
78623;BME280;67943;54.412;9.502;2023-07-31T08:11:41;100286.47;;;16.21;96.07
78623;BME280;67943;54.412;9.502;2023-07-31T08:16:43;100274.53;;;16.46;95.88
78623;BME280;67943;54.412;9.502;2023-07-31T08:21:46;100278.66;;;16.69;95.09
78623;BME280;67943;54.412;9.502;2023-07-31T08:26:47;100268.03;;;16.51;94.80
78623;BME280;67943;54.412;9.502;2023-07-31T08:31:50;100259.72;;;16.42;94.91
78623;BME280;67943;54.412;9.502;2023-07-31T08:36:52;100265.97;;;16.41;94.80
78623;BME280;67943;54.412;9.502;2023-07-31T08:41:58;100260.31;;;16.47;94.39
78623;BME280;67943;54.412;9.502;2023-07-31T08:47:01;100272.94;;;16.43;92.96
78623;BME280;67943;54.412;9.502;2023-07-31T08:52:03;100277.63;;;16.38;93.19
78623;BME280;67943;54.412;9.502;2023-07-31T08:57:05;100267.69;;;16.42;93.62
78623;BME280;67943;54.412;9.502;2023-07-31T09:02:10;100268.03;;;16.36;94.06
78623;BME280;67943;54.412;9.502;2023-07-31T09:07:12;100275.16;;;16.51;93.89
78623;BME280;67943;54.412;9.502;2023-07-31T09:12:15;100263.59;;;16.52;94.23
78623;BME280;67943;54.412;9.502;2023-07-31T09:17:28;100256.56;;;16.51;94.19
78623;BME280;67943;54.412;9.502;2023-07-31T09:22:34;100261.22;;;16.63;94.52
78623;BME280;67943;54.412;9.502;2023-07-31T09:27:46;100263.81;;;16.80;93.82
78623;BME280;67943;54.412;9.502;2023-07-31T09:32:50;100265.13;;;16.73;93.75
78623;BME280;67943;54.412;9.502;2023-07-31T09:37:53;100270.00;;;16.97;92.44
78623;BME280;67943;54.412;9.502;2023-07-31T09:43:00;100255.75;;;16.82;92.80
78623;BME280;67943;54.412;9.502;2023-07-31T09:48:03;100265.38;;;17.00;92.09
78623;BME280;67943;54.412;9.502;2023-07-31T09:53:09;100256.88;;;16.94;92.02
78623;BME280;67943;54.412;9.502;2023-07-31T09:58:12;100267.09;;;17.01;92.02
78623;BME280;67943;54.412;9.502;2023-07-31T10:03:16;100253.72;;;17.03;92.45
78623;BME280;67943;54.412;9.502;2023-07-31T10:08:20;100257.53;;;17.13;92.57
78623;BME280;67943;54.412;9.502;2023-07-31T10:13:22;100250.94;;;17.20;91.86
78623;BME280;67943;54.412;9.502;2023-07-31T10:18:26;100259.34;;;17.28;91.35
78623;BME280;67943;54.412;9.502;2023-07-31T10:23:28;100254.69;;;17.32;92.69
78623;BME280;67943;54.412;9.502;2023-07-31T10:28:32;100256.06;;;17.23;92.58
78623;BME280;67943;54.412;9.502;2023-07-31T10:33:36;100256.41;;;17.17;92.31
78623;BME280;67943;54.412;9.502;2023-07-31T10:38:38;100240.38;;;17.18;93.18
78623;BME280;67943;54.412;9.502;2023-07-31T10:43:39;100247.69;;;17.15;93.36
78623;BME280;67943;54.412;9.502;2023-07-31T10:48:42;100232.16;;;17.23;93.20
78623;BME280;67943;54.412;9.502;2023-07-31T10:53:43;100227.25;;;17.31;91.71
78623;BME280;67943;54.412;9.502;2023-07-31T10:58:45;100253.09;;;17.43;91.27
78623;BME280;67943;54.412;9.502;2023-07-31T11:03:49;100238.34;;;17.38;89.97
78623;BME280;67943;54.412;9.502;2023-07-31T11:08:53;100238.91;;;17.29;90.03
78623;BME280;67943;54.412;9.502;2023-07-31T11:13:54;100220.34;;;17.43;90.38
78623;BME280;67943;54.412;9.502;2023-07-31T11:18:57;100222.06;;;17.44;90.85
78623;BME280;67943;54.412;9.502;2023-07-31T11:23:59;100230.97;;;17.43;87.89
78623;BME280;67943;54.412;9.502;2023-07-31T11:29:00;100239.81;;;17.43;88.31
78623;BME280;67943;54.412;9.502;2023-07-31T11:34:07;100215.34;;;17.52;88.90
78623;BME280;67943;54.412;9.502;2023-07-31T11:39:09;100221.34;;;17.56;89.04
78623;BME280;67943;54.412;9.502;2023-07-31T11:44:11;100206.09;;;17.74;87.70
78623;BME280;67943;54.412;9.502;2023-07-31T11:49:14;100210.16;;;17.65;88.10
78623;BME280;67943;54.412;9.502;2023-07-31T11:54:16;100207.25;;;17.84;88.53
78623;BME280;67943;54.412;9.502;2023-07-31T11:59:18;100197.56;;;17.83;88.18
78623;BME280;67943;54.412;9.502;2023-07-31T12:04:21;100199.56;;;17.79;89.37
78623;BME280;67943;54.412;9.502;2023-07-31T12:09:23;100200.50;;;17.78;89.50
78623;BME280;67943;54.412;9.502;2023-07-31T12:14:27;100199.63;;;17.92;87.46
78623;BME280;67943;54.412;9.502;2023-07-31T12:19:31;100192.69;;;17.45;87.32
78623;BME280;67943;54.412;9.502;2023-07-31T12:24:34;100213.53;;;17.53;87.16
78623;BME280;67943;54.412;9.502;2023-07-31T12:29:35;100204.19;;;17.46;87.06
78623;BME280;67943;54.412;9.502;2023-07-31T12:34:43;100207.72;;;17.46;87.08
78623;BME280;67943;54.412;9.502;2023-07-31T12:39:44;100207.69;;;17.32;89.22
78623;BME280;67943;54.412;9.502;2023-07-31T12:44:46;100198.78;;;17.47;89.56
78623;BME280;67943;54.412;9.502;2023-07-31T12:49:48;100205.47;;;17.25;88.58
78623;BME280;67943;54.412;9.502;2023-07-31T12:54:50;100196.41;;;17.13;90.70
78623;BME280;67943;54.412;9.502;2023-07-31T12:59:51;100185.00;;;17.11;90.34
78623;BME280;67943;54.412;9.502;2023-07-31T13:04:54;100164.66;;;17.26;90.96
78623;BME280;67943;54.412;9.502;2023-07-31T13:09:56;100172.81;;;17.37;89.81
78623;BME280;67943;54.412;9.502;2023-07-31T13:14:58;100171.97;;;17.36;87.15
78623;BME280;67943;54.412;9.502;2023-07-31T13:20:00;100167.88;;;17.61;87.03
78623;BME280;67943;54.412;9.502;2023-07-31T13:25:02;100158.78;;;17.79;87.70
78623;BME280;67943;54.412;9.502;2023-07-31T13:30:05;100153.09;;;17.85;86.31
78623;BME280;67943;54.412;9.502;2023-07-31T13:35:08;100153.94;;;17.85;86.85
78623;BME280;67943;54.412;9.502;2023-07-31T13:40:11;100151.91;;;17.61;87.67
78623;BME280;67943;54.412;9.502;2023-07-31T13:45:13;100140.34;;;17.90;85.36
78623;BME280;67943;54.412;9.502;2023-07-31T13:50:15;100134.25;;;17.74;85.89
78623;BME280;67943;54.412;9.502;2023-07-31T13:55:19;100123.22;;;17.80;85.52
78623;BME280;67943;54.412;9.502;2023-07-31T14:00:20;100112.66;;;17.93;85.22
78623;BME280;67943;54.412;9.502;2023-07-31T14:05:23;100114.81;;;18.29;84.52
78623;BME280;67943;54.412;9.502;2023-07-31T14:10:25;100122.00;;;18.41;84.41
78623;BME280;67943;54.412;9.502;2023-07-31T14:15:26;100117.34;;;18.44;83.93
78623;BME280;67943;54.412;9.502;2023-07-31T14:20:30;100119.94;;;18.32;82.84
78623;BME280;67943;54.412;9.502;2023-07-31T14:25:31;100123.34;;;18.34;82.70
78623;BME280;67943;54.412;9.502;2023-07-31T14:30:33;100117.97;;;18.48;82.00
78623;BME280;67943;54.412;9.502;2023-07-31T14:35:36;100122.31;;;18.36;81.92
78623;BME280;67943;54.412;9.502;2023-07-31T14:40:37;100120.31;;;18.40;80.48
78623;BME280;67943;54.412;9.502;2023-07-31T14:45:39;100102.75;;;18.50;80.90
78623;BME280;67943;54.412;9.502;2023-07-31T14:50:41;100097.78;;;18.72;79.52
78623;BME280;67943;54.412;9.502;2023-07-31T14:55:43;100099.47;;;19.38;77.43
78623;BME280;67943;54.412;9.502;2023-07-31T15:00:44;100102.91;;;19.78;74.25
78623;BME280;67943;54.412;9.502;2023-07-31T15:05:47;100099.50;;;19.89;71.50
78623;BME280;67943;54.412;9.502;2023-07-31T15:10:49;100079.25;;;20.10;72.31
78623;BME280;67943;54.412;9.502;2023-07-31T15:15:52;100071.91;;;20.01;73.72
78623;BME280;67943;54.412;9.502;2023-07-31T15:20:54;100065.22;;;19.83;72.26
78623;BME280;67943;54.412;9.502;2023-07-31T15:25:56;100070.38;;;19.61;72.58
78623;BME280;67943;54.412;9.502;2023-07-31T15:30:58;100061.00;;;19.55;73.11
78623;BME280;67943;54.412;9.502;2023-07-31T15:36:00;100062.03;;;19.27;73.72
78623;BME280;67943;54.412;9.502;2023-07-31T15:41:02;100082.50;;;19.14;75.67
78623;BME280;67943;54.412;9.502;2023-07-31T15:46:03;100091.00;;;18.94;75.81
78623;BME280;67943;54.412;9.502;2023-07-31T15:51:07;100090.19;;;18.66;76.13
78623;BME280;67943;54.412;9.502;2023-07-31T15:56:08;100085.41;;;18.57;75.88
78623;BME280;67943;54.412;9.502;2023-07-31T16:01:10;100081.09;;;18.42;77.07
78623;BME280;67943;54.412;9.502;2023-07-31T16:06:13;100063.34;;;18.55;77.33
78623;BME280;67943;54.412;9.502;2023-07-31T16:11:14;100052.88;;;18.66;76.88
78623;BME280;67943;54.412;9.502;2023-07-31T16:16:16;100039.34;;;18.82;75.86
78623;BME280;67943;54.412;9.502;2023-07-31T16:21:19;100048.66;;;18.76;76.07
78623;BME280;67943;54.412;9.502;2023-07-31T16:26:20;100041.47;;;18.64;77.09
78623;BME280;67943;54.412;9.502;2023-07-31T16:31:22;100037.44;;;18.71;77.87
78623;BME280;67943;54.412;9.502;2023-07-31T16:36:25;100027.84;;;18.81;78.10
78623;BME280;67943;54.412;9.502;2023-07-31T16:41:26;100031.34;;;18.69;79.17
78623;BME280;67943;54.412;9.502;2023-07-31T16:46:28;100029.94;;;18.64;79.42
78623;BME280;67943;54.412;9.502;2023-07-31T16:51:32;100032.41;;;18.67;78.71
78623;BME280;67943;54.412;9.502;2023-07-31T16:56:33;100010.66;;;18.60;78.93
78623;BME280;67943;54.412;9.502;2023-07-31T17:01:35;100011.56;;;18.59;79.58
78623;BME280;67943;54.412;9.502;2023-07-31T17:06:37;100009.59;;;18.36;80.40
78623;BME280;67943;54.412;9.502;2023-07-31T17:11:39;100010.94;;;18.29;81.14
78623;BME280;67943;54.412;9.502;2023-07-31T17:16:40;99993.72;;;18.07;81.82
78623;BME280;67943;54.412;9.502;2023-07-31T17:21:43;99998.66;;;18.13;82.56
78623;BME280;67943;54.412;9.502;2023-07-31T17:26:45;99995.13;;;17.86;84.46
78623;BME280;67943;54.412;9.502;2023-07-31T17:31:46;99993.91;;;17.77;85.77
78623;BME280;67943;54.412;9.502;2023-07-31T17:36:49;99990.00;;;17.83;86.01
78623;BME280;67943;54.412;9.502;2023-07-31T17:41:50;99986.00;;;17.90;85.82
78623;BME280;67943;54.412;9.502;2023-07-31T17:46:52;99983.34;;;17.76;87.03
78623;BME280;67943;54.412;9.502;2023-07-31T17:51:55;99977.84;;;17.79;87.31
78623;BME280;67943;54.412;9.502;2023-07-31T17:56:56;99974.63;;;17.74;88.19
78623;BME280;67943;54.412;9.502;2023-07-31T18:01:58;99970.25;;;17.73;88.51
78623;BME280;67943;54.412;9.502;2023-07-31T18:07:01;99968.16;;;17.78;88.15
78623;BME280;67943;54.412;9.502;2023-07-31T18:12:03;99958.66;;;17.74;88.78
78623;BME280;67943;54.412;9.502;2023-07-31T18:17:04;99942.69;;;17.74;88.66
78623;BME280;67943;54.412;9.502;2023-07-31T18:22:07;99933.09;;;17.71;88.96
78623;BME280;67943;54.412;9.502;2023-07-31T18:27:09;99937.00;;;17.66;89.27
78623;BME280;67943;54.412;9.502;2023-07-31T18:32:10;99937.94;;;17.65;89.10
78623;BME280;67943;54.412;9.502;2023-07-31T18:37:14;99925.56;;;17.64;89.35
78623;BME280;67943;54.412;9.502;2023-07-31T18:42:15;99908.13;;;17.60;89.04
78623;BME280;67943;54.412;9.502;2023-07-31T18:47:17;99899.78;;;17.51;89.38
78623;BME280;67943;54.412;9.502;2023-07-31T18:52:20;99910.41;;;17.51;89.45
78623;BME280;67943;54.412;9.502;2023-07-31T18:57:21;99896.56;;;17.46;89.89
78623;BME280;67943;54.412;9.502;2023-07-31T19:02:23;99884.88;;;17.49;89.21
78623;BME280;67943;54.412;9.502;2023-07-31T19:07:25;99885.91;;;17.46;89.67
78623;BME280;67943;54.412;9.502;2023-07-31T19:12:27;99884.97;;;17.47;89.63
78623;BME280;67943;54.412;9.502;2023-07-31T19:17:28;99884.59;;;17.39;90.24
78623;BME280;67943;54.412;9.502;2023-07-31T19:22:31;99884.22;;;17.45;90.43
78623;BME280;67943;54.412;9.502;2023-07-31T19:27:33;99887.16;;;17.41;90.13
78623;BME280;67943;54.412;9.502;2023-07-31T19:32:34;99879.78;;;17.32;90.37
78623;BME280;67943;54.412;9.502;2023-07-31T19:37:37;99872.41;;;17.23;91.48
78623;BME280;67943;54.412;9.502;2023-07-31T19:42:38;99868.31;;;17.17;91.86
78623;BME280;67943;54.412;9.502;2023-07-31T19:47:40;99858.44;;;17.05;93.26
78623;BME280;67943;54.412;9.502;2023-07-31T19:52:43;99843.44;;;17.04;93.34
78623;BME280;67943;54.412;9.502;2023-07-31T19:57:44;99821.03;;;17.08;93.18
78623;BME280;67943;54.412;9.502;2023-07-31T20:02:46;99815.91;;;17.05;94.07
78623;BME280;67943;54.412;9.502;2023-07-31T20:07:48;99797.31;;;17.05;93.83
78623;BME280;67943;54.412;9.502;2023-07-31T20:12:50;99788.63;;;17.03;94.44
78623;BME280;67943;54.412;9.502;2023-07-31T20:17:51;99783.09;;;17.06;94.84
78623;BME280;67943;54.412;9.502;2023-07-31T20:22:54;99773.22;;;17.08;94.45
78623;BME280;67943;54.412;9.502;2023-07-31T20:27:56;99787.91;;;17.13;94.58
78623;BME280;67943;54.412;9.502;2023-07-31T20:32:57;99783.44;;;17.14;94.96
78623;BME280;67943;54.412;9.502;2023-07-31T20:38:01;99776.06;;;17.05;95.86
78623;BME280;67943;54.412;9.502;2023-07-31T20:43:03;99777.94;;;17.17;95.90
78623;BME280;67943;54.412;9.502;2023-07-31T20:48:05;99761.63;;;17.09;96.60
78623;BME280;67943;54.412;9.502;2023-07-31T20:53:08;99758.78;;;17.12;97.09
78623;BME280;67943;54.412;9.502;2023-07-31T20:58:10;99751.63;;;17.00;98.44
78623;BME280;67943;54.412;9.502;2023-07-31T21:03:11;99745.47;;;17.12;98.46
78623;BME280;67943;54.412;9.502;2023-07-31T21:08:14;99747.28;;;17.11;98.42
78623;BME280;67943;54.412;9.502;2023-07-31T21:13:15;99739.03;;;17.16;99.07
78623;BME280;67943;54.412;9.502;2023-07-31T21:18:17;99724.97;;;17.14;99.33
78623;BME280;67943;54.412;9.502;2023-07-31T21:23:20;99734.34;;;17.19;99.73
78623;BME280;67943;54.412;9.502;2023-07-31T21:28:21;99723.97;;;17.29;99.63
78623;BME280;67943;54.412;9.502;2023-07-31T21:33:24;99724.84;;;17.30;99.86
78623;BME280;67943;54.412;9.502;2023-07-31T21:38:27;99723.63;;;17.21;99.96
78623;BME280;67943;54.412;9.502;2023-07-31T21:43:29;99718.81;;;17.13;100.00
78623;BME280;67943;54.412;9.502;2023-07-31T21:48:30;99718.88;;;17.26;98.54
78623;BME280;67943;54.412;9.502;2023-07-31T21:53:33;99721.09;;;17.05;97.61
78623;BME280;67943;54.412;9.502;2023-07-31T21:58:35;99705.78;;;16.96;97.76
78623;BME280;67943;54.412;9.502;2023-07-31T22:03:36;99702.28;;;16.96;98.12
78623;BME280;67943;54.412;9.502;2023-07-31T22:08:39;99682.53;;;17.00;97.98
78623;BME280;67943;54.412;9.502;2023-07-31T22:13:41;99682.19;;;17.04;97.69
78623;BME280;67943;54.412;9.502;2023-07-31T22:18:42;99682.75;;;17.09;97.50
78623;BME280;67943;54.412;9.502;2023-07-31T22:23:45;99667.34;;;17.14;97.82
78623;BME280;67943;54.412;9.502;2023-07-31T22:28:47;99665.66;;;17.13;98.47
78623;BME280;67943;54.412;9.502;2023-07-31T22:33:48;99667.44;;;17.13;98.63
78623;BME280;67943;54.412;9.502;2023-07-31T22:38:52;99653.09;;;17.15;98.59
78623;BME280;67943;54.412;9.502;2023-07-31T22:43:54;99642.66;;;17.00;98.43
78623;BME280;67943;54.412;9.502;2023-07-31T22:48:55;99650.53;;;17.01;96.93
78623;BME280;67943;54.412;9.502;2023-07-31T22:53:58;99644.03;;;17.05;95.96
78623;BME280;67943;54.412;9.502;2023-07-31T22:59:00;99636.41;;;17.01;95.86
78623;BME280;67943;54.412;9.502;2023-07-31T23:04:01;99626.72;;;17.00;95.66
78623;BME280;67943;54.412;9.502;2023-07-31T23:09:04;99621.16;;;16.90;95.76
78623;BME280;67943;54.412;9.502;2023-07-31T23:14:06;99613.69;;;16.82;96.17
78623;BME280;67943;54.412;9.502;2023-07-31T23:19:07;99599.44;;;16.83;95.56
78623;BME280;67943;54.412;9.502;2023-07-31T23:24:10;99588.81;;;16.83;95.32
78623;BME280;67943;54.412;9.502;2023-07-31T23:29:11;99593.78;;;16.75;95.67
78623;BME280;67943;54.412;9.502;2023-07-31T23:34:13;99583.06;;;16.77;96.12
78623;BME280;67943;54.412;9.502;2023-07-31T23:39:16;99582.09;;;16.78;96.05
78623;BME280;67943;54.412;9.502;2023-07-31T23:44:17;99568.81;;;16.65;96.51
78623;BME280;67943;54.412;9.502;2023-07-31T23:49:19;99558.34;;;16.62;96.75
78623;BME280;67943;54.412;9.502;2023-07-31T23:54:21;99561.97;;;16.61;97.29
78623;BME280;67943;54.412;9.502;2023-07-31T23:59:23;99552.28;;;16.60;96.82
